createdAt,value
2018-09-10T03:02:31.942Z,994.50
2018-09-10T03:03:33.392Z,994.52
2018-09-10T03:04:35.494Z,994.50
2018-09-10T03:05:33.364Z,994.50
2018-09-10T03:06:36.154Z,994.47
2018-09-10T03:07:33.443Z,994.49
2018-09-10T03:08:33.807Z,994.49
2018-09-10T03:09:33.845Z,994.47
2018-09-10T03:10:32.410Z,994.43
2018-09-10T03:11:31.729Z,994.38
2018-09-10T03:12:31.556Z,994.42
2018-09-10T03:13:31.844Z,994.41
2018-09-10T03:14:31.864Z,994.42
2018-09-10T03:15:32.124Z,994.46
2018-09-10T03:16:32.956Z,994.42
2018-09-10T03:17:32.466Z,994.39
2018-09-10T03:18:32.472Z,994.37
2018-09-10T03:19:32.738Z,994.36
2018-09-10T03:20:33.079Z,994.33
2018-09-10T03:21:33.043Z,994.33
2018-09-10T03:22:33.445Z,994.30
2018-09-10T03:23:33.524Z,994.27
2018-09-10T03:24:33.605Z,994.26
2018-09-10T03:25:33.797Z,994.25
2018-09-10T03:26:33.969Z,994.24
2018-09-10T03:27:33.963Z,994.23
2018-09-10T03:28:34.393Z,994.27
2018-09-10T03:29:34.494Z,994.26
2018-09-10T03:30:34.705Z,994.23
2018-09-10T03:31:34.910Z,994.20
2018-09-10T03:32:35.093Z,994.25
2018-09-10T03:33:35.187Z,994.21
2018-09-10T03:34:35.463Z,994.18
2018-09-10T03:35:35.489Z,994.18
2018-09-10T03:36:35.782Z,994.25
2018-09-10T03:37:36.169Z,994.25
2018-09-10T03:38:38.703Z,994.28
2018-09-10T03:39:36.262Z,994.26
2018-09-10T03:40:36.407Z,994.28
2018-09-10T03:41:36.718Z,994.31
2018-09-10T03:42:36.883Z,994.30
2018-09-10T03:43:37.038Z,994.30
2018-09-10T03:44:38.487Z,994.27
2018-09-10T09:47:59.268Z,994.86
2018-09-10T09:48:59.735Z,994.87
2018-09-10T10:02:51.136Z,994.86
2018-09-10T10:03:51.313Z,994.85
2018-09-10T10:07:49.559Z,994.91
2018-09-10T10:08:57.035Z,994.94
2018-09-10T10:18:32.853Z,994.77
2018-09-10T10:19:27.111Z,994.81
2018-09-10T10:20:33.777Z,994.73
2018-09-10T10:23:11.841Z,994.78
2018-09-10T10:24:12.961Z,994.82
2018-09-10T10:25:12.871Z,994.74
2018-09-10T10:26:12.257Z,994.69
2018-09-10T10:27:13.143Z,994.71
2018-09-10T10:28:14.394Z,994.61
2018-09-10T10:29:13.430Z,994.68
2018-09-10T10:30:13.938Z,994.72
2018-09-10T10:31:11.024Z,994.78
2018-09-10T10:32:11.121Z,994.62
2018-09-10T10:33:11.290Z,994.54
2018-09-10T10:34:11.512Z,994.51
2018-09-10T10:35:11.745Z,994.44
2018-09-10T10:36:11.888Z,994.47
2018-09-10T10:37:12.039Z,994.48
2018-09-10T10:38:12.317Z,994.49
2018-09-10T10:39:12.543Z,994.45
2018-09-10T10:40:12.672Z,994.45
2018-09-10T10:41:12.687Z,994.43
2018-09-10T10:42:12.792Z,994.45
2018-09-10T10:43:13.012Z,994.38
2018-09-10T10:44:13.211Z,994.40
2018-09-10T10:45:13.497Z,994.39
2018-09-10T10:46:13.595Z,994.35
2018-09-10T10:47:14.099Z,994.31
2018-09-10T10:48:14.056Z,994.31
2018-09-10T10:49:14.542Z,994.29
2018-09-10T10:50:14.425Z,994.31
2018-09-10T10:51:14.595Z,994.34
2018-09-10T10:52:14.636Z,994.29
2018-09-10T10:53:15.525Z,994.29
2018-09-10T10:54:15.023Z,994.26
2018-09-10T10:55:15.317Z,994.65
2018-09-10T10:56:15.767Z,994.31
2018-09-10T10:57:16.026Z,994.26
2018-09-10T10:58:16.225Z,994.44
2018-09-10T10:59:17.725Z,994.62
2018-09-10T11:00:16.991Z,994.34
2018-09-10T11:01:16.535Z,994.68
2018-09-10T11:04:08.394Z,994.29
2018-09-10T11:05:03.122Z,994.62
2018-09-10T11:06:15.123Z,994.34
2018-09-10T11:07:06.850Z,994.26
2018-09-10T11:09:10.253Z,994.36
2018-09-10T11:10:04.090Z,994.50
2018-09-10T11:11:04.624Z,994.80
2018-09-10T11:12:01.818Z,994.67
2018-09-10T11:13:01.850Z,994.74
2018-09-10T11:15:02.421Z,994.42
2018-09-10T11:16:02.350Z,994.35
2018-09-10T11:17:02.567Z,994.36
2018-09-10T11:18:02.735Z,994.62
2018-09-10T11:19:02.880Z,994.75
2018-09-10T11:20:03.162Z,994.75
2018-09-10T11:21:05.073Z,994.66
2018-09-10T11:22:03.413Z,994.50
2018-09-10T11:23:04.091Z,994.61
2018-09-10T11:24:05.350Z,994.58
2018-09-10T11:25:05.187Z,994.50
2018-09-10T11:26:04.385Z,994.41
2018-09-10T11:27:04.306Z,994.49
2018-09-10T11:28:04.502Z,994.47
2018-09-10T11:29:04.738Z,994.43
2018-09-10T11:30:04.872Z,994.33
2018-09-10T11:31:05.805Z,994.46
2018-09-10T11:32:08.097Z,994.45
2018-09-10T11:33:05.553Z,994.54
2018-09-10T11:34:05.710Z,994.73
2018-09-10T11:35:05.919Z,994.65
2018-09-10T11:36:06.060Z,994.51
2018-09-10T11:37:06.279Z,994.65
2018-09-10T11:38:06.396Z,994.77
2018-09-10T11:39:06.635Z,994.58
2018-09-10T11:40:06.673Z,994.62
2018-09-10T11:41:06.951Z,994.35
2018-09-10T11:42:07.085Z,994.33
2018-09-10T11:43:07.269Z,994.12
2018-09-10T11:44:07.415Z,994.00
2018-09-10T11:45:07.694Z,993.93
2018-09-10T11:46:07.798Z,994.03
2018-09-10T11:47:07.979Z,994.01
2018-09-10T11:48:08.256Z,994.01
2018-09-10T11:49:08.362Z,993.93
2018-09-10T11:50:08.552Z,993.87
2018-09-10T11:51:08.766Z,993.86
2018-09-10T11:52:08.952Z,993.78
2018-09-10T11:53:09.089Z,993.79
2018-09-10T11:54:09.188Z,993.72
2018-09-10T11:55:09.472Z,993.72
2018-09-10T11:56:09.622Z,993.75
2018-09-10T11:57:09.796Z,993.71
2018-09-10T11:58:10.034Z,993.73
2018-09-10T11:59:10.161Z,993.83
2018-09-10T12:00:10.312Z,993.81
2018-09-10T12:01:10.543Z,993.90
2018-09-10T12:02:10.707Z,993.90
2018-09-10T12:03:10.821Z,993.90
2018-09-10T12:04:11.094Z,993.80
2018-09-10T12:05:11.254Z,993.75
2018-09-10T12:06:11.454Z,993.71
2018-09-10T12:07:11.612Z,993.78
2018-09-10T12:09:12.028Z,993.80
2018-09-10T12:10:12.214Z,993.67
2018-09-10T12:11:12.352Z,993.66
2018-09-10T12:12:12.565Z,993.56
2018-09-10T12:13:12.712Z,993.54
2018-09-10T12:14:12.867Z,993.59
2018-09-10T12:15:13.061Z,993.64
2018-09-10T12:16:13.215Z,993.51
2018-09-10T12:17:13.331Z,993.55
2018-09-10T12:18:13.565Z,993.47
2018-09-10T12:19:13.706Z,993.53
2018-09-10T12:20:13.915Z,993.54
2018-09-10T12:21:14.109Z,993.55
2018-09-10T12:22:14.263Z,993.57
2018-09-10T12:23:14.379Z,993.61
2018-09-10T12:24:14.596Z,993.59
2018-09-10T12:25:14.810Z,993.61
2018-09-10T12:26:14.941Z,993.71
2018-09-10T12:27:15.084Z,993.80
2018-09-10T12:28:15.290Z,993.79
2018-09-10T12:29:15.462Z,993.94
2018-09-10T12:30:15.602Z,994.25
2018-09-10T12:31:15.779Z,994.34
2018-09-10T12:32:15.927Z,994.20
2018-09-10T12:33:16.129Z,994.27
2018-09-10T12:34:16.308Z,994.44
2018-09-10T12:35:16.469Z,994.01
2018-09-10T12:36:16.717Z,993.86
2018-09-10T12:37:16.791Z,993.66
2018-09-10T12:38:16.991Z,993.66
2018-09-10T12:39:18.047Z,994.00
2018-09-10T12:40:17.486Z,993.68
2018-09-10T12:41:17.728Z,993.80
2018-09-10T12:42:17.934Z,993.70
2018-09-10T12:43:18.049Z,993.69
2018-09-10T12:44:18.220Z,993.73
2018-09-10T12:45:18.422Z,994.02
2018-09-10T12:46:18.631Z,993.90
2018-09-10T12:47:18.673Z,993.99
2018-09-10T12:48:18.901Z,993.95
2018-09-10T12:49:19.085Z,993.72
2018-09-10T12:50:19.262Z,993.71
2018-09-10T12:51:19.407Z,993.72
2018-09-10T12:52:19.636Z,993.67
2018-09-10T12:53:19.769Z,993.58
2018-09-10T12:54:19.954Z,993.58
2018-09-10T12:55:20.153Z,993.78
2018-09-10T12:56:20.272Z,993.76
2018-09-10T12:57:20.452Z,993.57
2018-09-10T12:58:20.620Z,993.52
2018-09-10T12:59:20.730Z,993.65
2018-09-10T13:00:21.128Z,993.58
2018-09-10T13:01:21.188Z,993.59
2018-09-10T13:02:21.413Z,993.56
2018-09-10T13:03:21.593Z,993.53
2018-09-10T13:04:21.833Z,993.51
2018-09-10T13:05:21.941Z,993.50
2018-09-10T13:06:22.058Z,993.48
2018-09-10T13:07:22.294Z,993.45
2018-09-10T13:08:22.465Z,993.48
2018-09-10T13:09:22.633Z,993.46
2018-09-10T13:10:22.847Z,993.55
2018-09-10T13:11:23.730Z,993.43
2018-09-10T13:12:23.066Z,993.40
2018-09-10T13:13:23.728Z,993.32
2018-09-10T13:14:23.555Z,993.34
2018-09-10T13:15:23.665Z,993.37
2018-09-10T13:16:24.052Z,993.29
2018-09-10T13:17:24.133Z,993.27
2018-09-10T13:18:24.357Z,993.24
2018-09-10T13:19:25.448Z,993.22
2018-09-10T13:20:24.688Z,993.26
2018-09-10T13:21:24.791Z,993.29
2018-09-10T13:22:25.013Z,993.24
2018-09-10T13:23:25.332Z,993.29
2018-09-10T13:24:25.338Z,993.35
2018-09-10T13:25:25.574Z,993.36
2018-09-10T13:26:25.746Z,993.33
2018-09-10T13:27:25.910Z,993.38
2018-09-10T13:28:26.065Z,993.34
2018-09-10T13:29:26.540Z,993.38
2018-09-10T13:30:26.474Z,993.43
2018-09-10T13:31:26.609Z,993.45
2018-09-10T13:32:26.992Z,993.38
2018-09-10T13:33:27.019Z,993.33
2018-09-10T13:34:27.065Z,993.33
2018-09-10T13:35:27.991Z,993.34
2018-09-10T13:36:27.467Z,993.28
2018-09-10T13:37:28.949Z,993.34
2018-09-10T13:38:28.544Z,993.29
2018-09-10T13:41:27.249Z,993.40
2018-09-10T15:04:43.049Z,993.40
2018-09-10T15:07:05.016Z,993.42
2018-09-10T15:07:43.624Z,993.44
2018-09-10T15:08:43.731Z,993.46
2018-09-10T15:09:40.910Z,993.45
2018-09-10T15:11:00.928Z,993.43
2018-09-10T15:11:41.301Z,993.45
2018-09-10T15:12:42.206Z,993.43
2018-09-10T15:13:43.691Z,993.45
2018-09-10T15:15:05.406Z,993.49
2018-09-10T15:15:41.732Z,993.44
2018-09-10T15:16:42.847Z,993.42
2018-09-10T15:17:41.646Z,993.46
2018-09-10T15:26:54.511Z,993.53
2018-09-10T15:27:52.251Z,993.52
2018-09-10T15:28:53.519Z,993.48
2018-09-10T15:29:53.663Z,993.51
2018-09-10T15:30:55.372Z,993.48
2018-09-10T15:31:55.264Z,993.46
2018-09-10T15:34:56.380Z,993.52
2018-09-10T15:35:53.749Z,993.51
2018-09-10T15:36:58.411Z,993.53
2018-09-10T15:37:59.900Z,993.59
2018-09-10T15:38:54.627Z,993.56
2018-09-10T15:39:54.688Z,993.59
2018-09-10T15:40:51.766Z,993.55
2018-09-10T15:41:51.194Z,993.58
2018-09-10T15:42:51.304Z,993.57
2018-09-10T15:43:51.693Z,993.56
2018-09-10T15:44:51.793Z,993.51
2018-09-10T15:45:51.747Z,993.52
2018-09-10T15:46:52.396Z,993.51
2018-09-10T15:47:52.058Z,993.50
2018-09-10T15:48:52.602Z,993.54
2018-09-10T15:49:52.981Z,993.53
2018-09-10T15:50:54.348Z,993.55
2018-09-10T15:51:52.994Z,993.51
2018-09-10T15:52:53.077Z,993.63
2018-09-10T15:53:54.326Z,993.58
2018-09-10T15:54:53.449Z,993.58
2018-09-10T15:55:53.543Z,993.60
2018-09-10T15:56:53.807Z,993.61
2018-09-10T15:57:53.950Z,993.61
2018-09-10T15:58:54.763Z,993.59
2018-09-10T15:59:54.380Z,993.63
2018-09-10T16:00:54.440Z,993.65
2018-09-10T16:01:54.574Z,993.66
2018-09-10T16:02:54.815Z,993.67
2018-09-10T16:03:55.107Z,993.56
2018-09-10T16:04:55.181Z,993.60
2018-09-10T16:05:55.336Z,993.52
2018-09-10T16:06:56.447Z,993.51
2018-09-10T16:07:55.661Z,993.49
2018-09-10T16:08:55.795Z,993.54
2018-09-10T16:09:55.969Z,993.55
2018-09-10T16:10:56.287Z,993.58
2018-09-10T16:11:56.582Z,993.58
2018-09-10T16:12:56.610Z,993.61
2018-09-10T16:13:56.910Z,993.63
2018-09-10T16:14:56.931Z,993.61
2018-09-10T16:15:57.287Z,993.60
2018-09-10T16:16:57.453Z,993.58
2018-09-10T16:17:57.561Z,993.56
2018-09-10T16:18:58.020Z,993.57
2018-09-10T16:19:57.843Z,993.58
2018-09-10T16:20:58.045Z,993.56
2018-09-10T16:21:58.133Z,993.52
2018-09-10T16:22:58.627Z,993.50
2018-09-10T16:23:58.655Z,993.46
2018-09-10T16:24:58.712Z,993.50
2018-09-10T16:25:58.861Z,993.53
2018-09-10T16:26:59.383Z,993.51
2018-09-10T16:27:59.269Z,993.54
2018-09-10T16:29:00.509Z,993.55
2018-09-10T16:29:59.860Z,993.53
2018-09-10T16:31:01.328Z,993.49
2018-09-10T16:32:00.247Z,993.55
2018-09-10T16:33:00.503Z,993.52
2018-09-10T16:34:03.377Z,993.52
2018-09-10T16:35:00.659Z,993.54
2018-09-10T16:36:00.887Z,993.59
2018-09-10T16:37:01.732Z,993.61
2018-09-10T16:38:01.686Z,993.69
2018-09-10T16:39:01.621Z,993.71
2018-09-10T16:40:01.708Z,993.74
2018-09-10T16:41:02.160Z,993.76
2018-09-10T16:48:24.393Z,993.78
2018-09-10T16:48:50.237Z,993.80
2018-09-10T16:49:52.125Z,993.82
2018-09-10T16:57:17.584Z,993.93
2018-09-10T16:58:06.139Z,993.92
2018-09-10T16:59:05.609Z,993.93
2018-09-10T17:04:40.801Z,993.95
